Potter, Nebraska
Current Conditions -  °F | °C
As of 9:35 AM on Monday 26 Jan 2015 (Local Time) from KIBM Reporting Station
Clear Clear  
Wind Chill: 55°   Ceiling: Unl
Heat Index: 55°   Visibility: 10mi
Dew Point: 27°   Wind: 21mph
Humidity: 34%   Direction: 300°WNW
Pressure: 30.19"   Gusts: 31mph
Location:  41.22°N, 103.32°W
Report Text: KIBM 261635Z AUTO 30018G27KT 10SM CLR 13/M03 A3019 RMK AO2 T01301026
Loading
Personal Weather Stations






























Interactive Weather Map New forecast layout! Learn more

10-Day Weather Forecast

Advertisements
Track Severe Weather on mobile